createdAt,value
2018-05-25T00:02:07.699Z,101796.34
2018-05-25T00:07:10.184Z,101795.06
2018-05-25T00:12:12.675Z,101796.55
2018-05-25T00:17:15.174Z,101799.11
2018-05-25T00:22:17.760Z,101800.84
2018-05-25T00:27:21.067Z,101800.47
2018-05-25T00:32:23.629Z,101798.14
2018-05-25T00:37:26.369Z,101801.66
2018-05-25T00:42:28.878Z,101800.77
2018-05-25T00:47:31.393Z,101798.48
2018-05-25T00:52:33.886Z,101798.81
2018-05-25T00:57:39.231Z,101800.30
2018-05-25T01:02:41.703Z,101796.19
2018-05-25T01:07:44.385Z,101801.27
2018-05-25T01:12:46.877Z,101806.78
2018-05-25T01:17:49.508Z,101808.16
2018-05-25T01:22:53.244Z,101803.72
2018-05-25T01:27:56.675Z,101811.41
2018-05-25T01:32:59.275Z,101809.62
2018-05-25T01:38:01.766Z,101803.77
2018-05-25T01:43:04.327Z,101799.63
2018-05-25T01:48:06.799Z,101801.48
2018-05-25T01:53:09.342Z,101801.75
2018-05-25T01:58:11.811Z,101812.58
2018-05-25T02:03:14.306Z,101809.90
2018-05-25T02:08:16.801Z,101805.39
2018-05-25T02:13:19.358Z,101807.67
2018-05-25T02:18:22.035Z,101800.32
2018-05-25T02:23:24.586Z,101797.91
2018-05-25T02:28:27.180Z,101792.47
2018-05-25T02:33:29.689Z,101794.85
2018-05-25T02:38:32.227Z,101793.77
2018-05-25T02:43:34.661Z,101794.03
2018-05-25T02:48:37.207Z,101791.88
2018-05-25T02:53:39.694Z,101798.82
2018-05-25T02:58:42.252Z,101791.01
2018-05-25T03:03:44.756Z,101798.70
2018-05-25T03:08:47.275Z,101795.78
2018-05-25T03:13:50.067Z,101790.81
2018-05-25T03:18:52.771Z,101792.56
2018-05-25T03:23:55.280Z,101792.20
2018-05-25T03:28:57.812Z,101793.95
2018-05-25T03:34:00.448Z,101783.64
2018-05-25T03:39:02.938Z,101794.33
2018-05-25T03:44:05.433Z,101787.26
2018-05-25T03:49:07.955Z,101800.77
2018-05-25T03:54:10.637Z,101803.44
2018-05-25T03:59:25.035Z,101792.06
2018-05-25T04:04:27.605Z,101792.18
2018-05-25T04:09:31.624Z,101798.03
2018-05-25T04:14:35.042Z,101801.23
2018-05-25T04:19:38.543Z,101800.43
2018-05-25T04:24:41.113Z,101799.91
2018-05-25T04:29:43.633Z,101791.48
2018-05-25T04:34:46.481Z,101790.73
2018-05-25T04:39:50.017Z,101786.73
2018-05-25T04:44:52.908Z,101787.98
2018-05-25T04:49:55.468Z,101782.70
2018-05-25T04:54:58.069Z,101793.61
2018-05-25T05:00:01.226Z,101794.86
2018-05-25T05:05:03.691Z,101789.27
2018-05-25T05:10:06.162Z,101790.27
2018-05-25T05:15:08.733Z,101785.89
2018-05-25T05:20:11.233Z,101789.09
2018-05-25T05:25:13.740Z,101790.45
2018-05-25T05:30:16.213Z,101788.58
2018-05-25T05:35:18.740Z,101785.07
2018-05-25T05:40:21.270Z,101780.73
2018-05-25T05:45:23.811Z,101787.52
2018-05-25T05:50:26.396Z,101783.98
2018-05-25T05:55:29.033Z,101787.05
2018-05-25T06:00:31.518Z,101787.70
2018-05-25T06:05:34.017Z,101785.08
2018-05-25T06:10:36.528Z,101775.27
2018-05-25T06:15:40.029Z,101780.45
2018-05-25T06:20:42.499Z,101773.35
2018-05-25T06:25:45.021Z,101782.06
2018-05-25T06:30:47.835Z,101777.45
2018-05-25T06:35:50.363Z,101779.41
2018-05-25T06:40:53.019Z,101777.55
2018-05-25T06:45:55.708Z,101769.88
2018-05-25T06:50:58.378Z,101768.99
2018-05-25T06:56:00.904Z,101769.27
2018-05-25T07:01:03.406Z,101763.99
2018-05-25T07:06:05.923Z,101768.37
2018-05-25T07:11:08.419Z,101769.13
2018-05-25T07:16:10.925Z,101763.13
2018-05-25T07:21:13.394Z,101763.13
2018-05-25T07:26:16.131Z,101759.97
2018-05-25T07:31:18.742Z,101765.59
2018-05-25T07:36:21.405Z,101759.88
2018-05-25T07:41:24.013Z,101765.31
2018-05-25T07:46:26.667Z,101763.41
2018-05-25T07:51:29.192Z,101760.02
2018-05-25T07:56:31.659Z,101759.15
2018-05-25T08:01:34.172Z,101763.30
2018-05-25T08:06:36.671Z,101757.33
2018-05-25T08:11:39.200Z,101747.08
2018-05-25T08:16:41.712Z,101753.26
2018-05-25T08:21:44.330Z,101755.66
2018-05-25T08:26:46.811Z,101756.79
2018-05-25T08:31:49.873Z,101757.09
2018-05-25T08:36:52.390Z,101752.67
2018-05-25T08:41:55.062Z,101757.31
2018-05-25T08:46:57.620Z,101755.78
2018-05-25T08:52:00.132Z,101756.16
2018-05-25T08:57:02.638Z,101753.56
2018-05-25T09:02:06.194Z,101747.42
2018-05-25T09:07:08.667Z,101746.71
2018-05-25T09:12:11.366Z,101733.05
2018-05-25T09:17:13.856Z,101739.58
2018-05-25T09:22:16.504Z,101740.98
2018-05-25T09:27:18.995Z,101731.38
2018-05-25T09:32:21.511Z,101734.19
2018-05-25T09:37:24.062Z,101734.45
2018-05-25T09:42:26.570Z,101731.27
2018-05-25T09:47:29.080Z,101731.28
2018-05-25T09:52:31.570Z,101723.06
2018-05-25T09:57:34.081Z,101721.17
2018-05-25T10:02:36.624Z,101722.80
2018-05-25T10:07:39.082Z,101722.34
2018-05-25T10:12:41.569Z,101701.88
2018-05-25T10:17:44.151Z,101709.62
2018-05-25T10:22:46.642Z,101712.62
2018-05-25T10:27:49.148Z,101701.07
2018-05-25T10:32:51.692Z,101694.55
2018-05-25T10:37:54.204Z,101700.19
2018-05-25T10:42:56.738Z,101697.02
2018-05-25T10:47:59.234Z,101695.89
2018-05-25T10:53:01.731Z,101697.45
2018-05-25T10:58:04.254Z,101695.81
2018-05-25T11:03:06.770Z,101683.05
2018-05-25T11:08:09.239Z,101684.16
2018-05-25T11:13:11.738Z,101673.88
2018-05-25T11:18:14.252Z,101673.52
2018-05-25T11:23:16.742Z,101655.33
2018-05-25T11:28:19.294Z,101667.90
2018-05-25T11:33:21.863Z,101661.08
2018-05-25T11:38:24.373Z,101659.05
2018-05-25T11:43:26.994Z,101650.02
2018-05-25T11:48:29.512Z,101647.73
2018-05-25T11:53:32.009Z,101640.75
2018-05-25T11:58:34.494Z,101640.50
2018-05-25T12:03:36.997Z,101640.89
2018-05-25T12:08:39.500Z,101641.04
2018-05-25T12:13:41.994Z,101617.13
2018-05-25T12:18:44.481Z,101627.41
2018-05-25T12:23:47.043Z,101636.27
2018-05-25T12:28:49.737Z,101629.34
2018-05-25T12:33:52.235Z,101616.12
2018-05-25T12:38:54.792Z,101608.50
2018-05-25T12:43:57.368Z,101608.34
2018-05-25T12:48:59.854Z,101614.17
2018-05-25T12:54:02.371Z,101594.77
2018-05-25T12:59:04.847Z,101592.94
2018-05-25T13:04:07.384Z,101598.47
2018-05-25T13:09:09.858Z,101577.69
2018-05-25T13:14:12.374Z,101587.88
2018-05-25T13:19:14.869Z,101585.25
2018-05-25T13:24:17.816Z,101569.44
2018-05-25T13:29:20.404Z,101577.00
2018-05-25T13:34:22.990Z,101569.23
2018-05-25T13:39:25.576Z,101567.62
2018-05-25T13:44:28.048Z,101570.06
2018-05-25T13:49:30.561Z,101568.33
2018-05-25T13:54:33.068Z,101560.19
2018-05-25T13:59:35.627Z,101562.61
2018-05-25T14:04:38.126Z,101553.91
2018-05-25T14:09:40.696Z,101565.58
2018-05-25T14:14:43.171Z,101564.23
2018-05-25T14:19:45.674Z,101576.59
2018-05-25T14:24:49.167Z,101552.42
2018-05-25T14:29:51.962Z,101549.86
2018-05-25T14:34:54.587Z,101552.02
2018-05-25T14:39:57.255Z,101551.98
2018-05-25T14:44:59.794Z,101553.02
2018-05-25T14:50:02.351Z,101553.44
2018-05-25T14:55:04.864Z,101565.32
2018-05-25T15:00:07.384Z,101558.87
2018-05-25T15:05:09.930Z,101555.64
2018-05-25T15:10:12.432Z,101551.81
2018-05-25T15:15:15.036Z,101550.59
2018-05-25T15:20:17.647Z,101549.90
2018-05-25T15:25:20.321Z,101544.11
2018-05-25T15:30:22.842Z,101539.18
2018-05-25T15:35:25.368Z,101536.14
2018-05-25T15:40:27.897Z,101534.13
2018-05-25T15:45:30.576Z,101542.11
2018-05-25T15:50:33.073Z,101539.61
2018-05-25T15:55:35.718Z,101540.69
2018-05-25T16:00:38.237Z,101538.83
2018-05-25T16:05:41.454Z,101537.64
2018-05-25T16:10:43.969Z,101535.80
2018-05-25T16:15:46.504Z,101525.28
2018-05-25T16:20:49.018Z,101522.74
2018-05-25T16:25:51.607Z,101522.08
2018-05-25T16:30:54.209Z,101526.47
2018-05-25T16:35:56.884Z,101525.54
2018-05-25T16:40:59.572Z,101520.53
2018-05-25T16:46:02.049Z,101514.83
2018-05-25T16:51:04.542Z,101525.80
2018-05-25T16:56:07.249Z,101528.31
2018-05-25T17:01:09.791Z,101526.98
2018-05-25T17:06:12.357Z,101525.28
2018-05-25T17:11:14.969Z,101535.44
2018-05-25T17:16:26.983Z,101534.06
2018-05-25T17:21:41.469Z,101533.61
2018-05-25T17:26:45.095Z,101539.39
2018-05-25T17:31:47.727Z,101544.73
2018-05-25T17:36:50.488Z,101540.66
2018-05-25T17:41:53.611Z,101545.42
2018-05-25T17:46:56.500Z,101544.49
2018-05-25T17:57:08.605Z,101555.64
2018-05-25T18:02:11.217Z,101547.69
2018-05-25T18:07:13.696Z,101555.09
2018-05-25T18:12:16.227Z,101566.97
2018-05-25T18:17:18.780Z,101594.67
2018-05-25T18:22:28.709Z,101584.30
2018-05-25T18:27:33.902Z,101598.41
2018-05-25T18:32:38.830Z,101601.62
2018-05-25T18:37:41.298Z,101619.28
2018-05-25T18:42:44.383Z,101624.88
2018-05-25T18:47:46.891Z,101627.92
2018-05-25T18:52:49.951Z,101637.41
2018-05-25T18:57:52.708Z,101636.77
2018-05-25T19:02:55.641Z,101638.78
2018-05-25T19:07:58.282Z,101651.27
2018-05-25T19:13:05.781Z,101652.14
2018-05-25T19:18:10.117Z,101664.70
2018-05-25T19:23:13.693Z,101673.32
2018-05-25T19:28:20.568Z,101673.49
2018-05-25T19:33:25.943Z,101675.27
2018-05-25T19:38:29.980Z,101687.37
2018-05-25T19:43:33.148Z,101692.94
2018-05-25T19:48:36.888Z,101707.89
2018-05-25T19:53:39.481Z,101704.59
2018-05-25T19:58:43.865Z,101706.58
2018-05-25T20:03:46.624Z,101693.63
2018-05-25T20:08:49.423Z,101691.17
2018-05-25T20:13:52.930Z,101685.42
2018-05-25T20:18:56.101Z,101689.25
2018-05-25T20:23:58.996Z,101691.55
2018-05-25T20:29:01.983Z,101689.34
2018-05-25T20:34:05.838Z,101707.27
2018-05-25T20:39:11.788Z,101705.94
2018-05-25T20:44:17.037Z,101705.61
2018-05-25T20:49:19.508Z,101704.77
2018-05-25T20:54:22.251Z,101712.94
2018-05-25T20:59:28.307Z,101716.19
2018-05-25T21:04:31.453Z,101720.55
2018-05-25T21:09:34.524Z,101729.30
2018-05-25T21:14:37.995Z,101729.89
2018-05-25T21:19:41.020Z,101739.56
2018-05-25T21:24:43.952Z,101734.92
2018-05-25T21:29:48.380Z,101740.02
2018-05-25T21:34:51.344Z,101742.84
2018-05-25T21:39:54.183Z,101739.26
2018-05-25T21:44:56.747Z,101736.69
2018-05-25T21:49:59.295Z,101740.58
2018-05-25T21:55:03.750Z,101740.10
2018-05-25T22:00:07.020Z,101743.97
2018-05-25T22:05:09.721Z,101747.03
2018-05-25T22:10:12.757Z,101755.11
2018-05-25T22:15:15.547Z,101755.59
2018-05-25T22:20:18.386Z,101753.61
2018-05-25T22:25:21.636Z,101753.96
2018-05-25T22:30:24.558Z,101753.94
2018-05-25T22:35:27.317Z,101751.95
2018-05-25T22:40:29.875Z,101752.95
2018-05-25T22:45:44.267Z,101756.98
2018-05-25T22:50:58.711Z,101763.14
2018-05-25T22:56:01.204Z,101766.72
2018-05-25T23:01:06.525Z,101759.55
2018-05-25T23:06:09.874Z,101763.94
2018-05-25T23:11:12.370Z,101770.34
2018-05-25T23:16:15.839Z,101763.56
2018-05-25T23:21:18.478Z,101763.28
2018-05-25T23:26:21.056Z,101758.17
2018-05-25T23:31:23.630Z,101760.53
2018-05-25T23:36:26.153Z,101761.88
2018-05-25T23:41:28.690Z,101763.97
2018-05-25T23:46:31.190Z,101762.74
2018-05-25T23:51:33.701Z,101766.20
2018-05-25T23:56:36.261Z,101780.73
